Hattiesburg Bobby L Chain Municipal Airport
KHBG : now visible

Airfield :











YOU CAN JOIN US ON...

 
LOGIN :

Register | Disclaimer

   EN    FR    IT 

 









Legend :    VFR   Marginal VFR   IFR   Intensive IFR   Very Intensive IFR
Visi :
Ceiling :
>= 8 km
>= 3000ft
5 to 8 km
1000 to 3000 ft
1500m to 5 km
500 to 1000 ft
800 to 1500m
200 to 500 ft
< 800m
< 200 ft
Symbols :   Thunderstorms  Fog  Heavy snow  Heavy precipitations  Wind > 20 kt






- Airport Elevation : 151 ft


KHBG - Hattiesburg Bobby L Chain Municipal

CURRENT METAR :
  • 130453Z AUTO 00000KT 10SM CLR 23/21 A3001 RMK AO2 SLP160 T02280211

EXPIRED METARs :
  • 130353Z AUTO 00000KT 10SM CLR 23/21 A3001 RMK AO2 SLP160 T02280211
  • 130253Z AUTO 00000KT 10SM CLR 23/22 A3000 RMK AO2 RAB0154E04 SLP157 P0000 60000 T02280217 53005

TAF KHBG
Valid from the 13 at 00:00 until the 14 at 00:00 UTC


122320Z 1300/1324 22009KT 6SM RA BR BKN110
FM130200 00000KT P6SM VCSH FEW045 BKN100
FM131300 27004KT P6SM -RA OVC015
FM131600 26005KT 4SM -RA OVC025
FM131700 25005KT P6SM -RA BKN050
FM132200 25005KT P6SM BKN250
KZHU FIR / North America



MET'MAP, your aeronautical weather chart ! - Copyright ORBIFLY December 2007 - Disclaimer

ORBIFLY MET'MAP TEAM :

Programming & Development : Alexandra Zaïnal
Concept & original design : Baudouin d'Aumeries
Assistance for programming : Marc-Olivier Méhu
Technical & hardware support : Manuel Goepfert

Contact : metmap@orbifly.com




SOURCES & CREDITS :

   NOAA       Earth
Advisory